M I D A S
Marine Information and Data Acquisition System
Tripno 1151 of the Zeeleeuw from 2006-08-23 06:29:35 to 2006-08-23 13:17:47
Back to CruiseResearch ActivitiesStationsMapUnderway DataData graphs

EquipmentUnitsComment
TimeDGPSUTC
LatitudeDGPSDM.mWGS84
LongitudeDGPSDM.mWGS84
HeadingGyrodeg 
SOGDGPSknotsSpeed over ground
COGDGPSdegCourse over ground
DepthEcho soundermeters200 kHz
Missing or incorrect values are displayed as -999
Navigation data collected by the RV Zeeleeuw from 2006-08-23 06:31:14 to 2006-08-23 13:29:55
Time Latitude Longitude Heading SOG COG Depth
2006-08-23 06:32:20 51°13.61 2°56.063 106.6 2 288 6.9
2006-08-23 06:33:20 51°13.631 2°55.976 119.4 4.5 296 -999
2006-08-23 06:34:20 51°13.674 2°55.868 123.2 4.7 302 -999
2006-08-23 06:35:20 51°13.7 2°55.773 99.5 3.2 285 -999
2006-08-23 06:36:20 51°13.709 2°55.753 51 0.6 15 12.4
2006-08-23 06:37:20 51°13.705 2°55.743 21 0.5 227 -999
2006-08-23 06:38:20 51°13.719 2°55.733 335.4 2 329 10.7
2006-08-23 06:39:19 51°13.779 2°55.674 333.9 5.4 329 9
2006-08-23 06:40:20 51°13.873 2°55.602 338.2 6.5 335 8.8
2006-08-23 06:41:20 51°13.975 2°55.53 340.4 6.8 336 9.4
2006-08-23 06:42:19 51°14.084 2°55.452 339.3 7.8 335 9.1
2006-08-23 06:43:19 51°14.205 2°55.351 331.2 8.6 326 9.1
2006-08-23 06:44:20 51°14.312 2°55.172 310.2 9.6 307 8.7
2006-08-23 06:45:20 51°14.432 2°54.988 331.4 10.7 325 9.1
2006-08-23 06:46:20 51°14.58 2°54.796 331.8 11.7 322 8.1
2006-08-23 06:47:20 51°14.737 2°54.606 333.6 11.9 324 8
2006-08-23 06:48:19 51°14.893 2°54.423 332.8 11.8 325 7.9
2006-08-23 06:49:19 51°15.049 2°54.242 333.3 11.6 324 7.4
2006-08-23 06:50:19 51°15.206 2°54.059 333.8 11.8 324 7.9
2006-08-23 06:51:20 51°15.37 2°53.877 335.9 11.9 324 8.6
2006-08-23 06:52:20 51°15.533 2°53.7 337.8 11.8 326 9.2
2006-08-23 06:53:20 51°15.7 2°53.531 336.7 12 325 9.6
2006-08-23 06:54:19 51°15.863 2°53.361 337.8 11.9 329 10.1
2006-08-23 06:55:19 51°16.036 2°53.208 342.2 11.9 331 10.6
2006-08-23 06:56:19 51°16.205 2°53.044 338.6 11.9 328 10.8
2006-08-23 06:57:20 51°16.373 2°52.865 338.8 11.9 330 10.9
2006-08-23 06:58:18 51°16.539 2°52.721 340.1 11.7 332 10.5
2006-08-23 06:59:19 51°16.711 2°52.569 334.9 11.5 326 9.1
2006-08-23 07:00:20 51°16.875 2°52.408 340.4 11.4 331 8.8
2006-08-23 07:01:20 51°17.037 2°52.257 338.6 10.6 330 9.1
2006-08-23 07:02:19 51°17.138 2°52.163 338.6 5.5 325 9.6
2006-08-23 07:03:20 51°17.219 2°52.106 7.1 5.3 -999 9.6
2006-08-23 07:04:20 51°17.289 2°52.121 18.4 3.2 8 9.9
2006-08-23 07:05:19 51°17.319 2°52.128 30.5 0.5 25 9.7
2006-08-23 07:06:18 51°17.319 2°52.134 59.2 0.4 126 9.9
2006-08-23 07:07:20 51°17.322 2°52.168 66 2.6 71 9.6
2006-08-23 07:08:20 51°17.358 2°52.256 54.4 4.6 56 9.6
2006-08-23 07:09:18 51°17.393 2°52.34 55.4 3.1 61 9.5
2006-08-23 07:10:20 51°17.404 2°52.391 67.9 1.1 95 9.7
2006-08-23 07:11:20 51°17.396 2°52.396 74.1 0.6 159 9.6
2006-08-23 07:12:20 51°17.401 2°52.455 63.1 4.3 66 9.5
2006-08-23 07:13:19 51°17.452 2°52.576 51.5 6.1 50 9.4
2006-08-23 07:14:20 51°17.531 2°52.662 34.4 4.9 30 9.5
2006-08-23 07:15:20 51°17.582 2°52.724 44.2 3 42 9.5
2006-08-23 07:16:20 51°17.606 2°52.764 45.8 1.2 47 9.3
2006-08-23 07:17:20 51°17.606 2°52.767 30.9 0.1 259 9.3
2006-08-23 07:18:20 51°17.632 2°52.809 54.9 5 57 9.3
2006-08-23 07:19:20 51°17.697 2°52.986 56.6 8.9 54 9.3
2006-08-23 07:20:19 51°17.789 2°53.175 53.5 9.2 51 9.2
2006-08-23 07:21:20 51°17.883 2°53.36 53 7.2 52 9.3
2006-08-23 07:22:20 51°17.931 2°53.466 52.3 3.9 53 9.4
2006-08-23 07:23:20 51°17.97 2°53.512 32.3 2.7 26 9.5
2006-08-23 07:24:20 51°18 2°53.551 54.9 1.7 60 9.4
2006-08-23 07:25:19 51°18.008 2°53.585 64 0.8 91 9.6
2006-08-23 07:26:20 51°17.999 2°53.592 88.5 0.7 161 9.5
2006-08-23 07:27:19 51°17.981 2°53.618 110.4 2.6 134 9.5
2006-08-23 07:28:20 51°17.898 2°53.695 154.7 8.8 164 9.1
2006-08-23 07:29:18 51°17.732 2°53.609 214.2 12.3 211 8.9
2006-08-23 07:30:20 51°17.545 2°53.42 214.1 13 213 8.7
2006-08-23 07:31:20 51°17.376 2°53.208 222.1 13 221 8.6
2006-08-23 07:32:20 51°17.204 2°53.004 219.1 12.9 216 8.4
2006-08-23 07:33:20 51°17.031 2°52.801 221.2 13 219 9
2006-08-23 07:34:20 51°16.862 2°52.591 220 12.8 218 8.9
2006-08-23 07:35:20 51°16.694 2°52.38 221.5 12.7 219 9.1
2006-08-23 07:36:19 51°16.528 2°52.174 222 12.7 220 10.4
2006-08-23 07:37:20 51°16.358 2°51.959 223.5 12.8 220 10.9
2006-08-23 07:38:20 51°16.192 2°51.747 219.4 12.8 218 11.6
2006-08-23 07:39:20 51°16.032 2°51.522 224.4 12.9 223 11.9
2006-08-23 07:40:20 51°15.867 2°51.305 219.6 12.9 218 12
2006-08-23 07:41:20 51°15.738 2°51.134 219.1 8 220 12.2
2006-08-23 07:42:20 51°15.657 2°51.019 227.6 5.5 227 12.3
2006-08-23 07:43:20 51°15.619 2°50.93 248.3 3.1 244 12.2
2006-08-23 07:44:20 51°15.607 2°50.896 291 0.7 205 -999
2006-08-23 07:45:20 51°15.595 2°50.885 309.9 0.7 225 12.3
2006-08-23 07:46:19 51°15.622 2°50.838 349.3 4.7 337 12.3
2006-08-23 07:47:20 51°15.703 2°50.909 60 6.9 58 12.2
2006-08-23 07:48:20 51°15.759 2°51.095 68 8.1 67 12.2
2006-08-23 07:49:20 51°15.805 2°51.255 70.4 5 72 12.2
2006-08-23 07:50:20 51°15.804 2°51.313 84.2 0.5 152 12.3
2006-08-23 07:51:20 51°15.797 2°51.321 90.4 0.7 127 12.3
2006-08-23 07:52:20 51°15.81 2°51.408 62.1 6 58 12.1
2006-08-23 07:53:20 51°15.898 2°51.577 52.7 9.4 52 12.1
2006-08-23 07:54:20 51°15.997 2°51.768 49.6 8.4 47 11.9
2006-08-23 07:55:20 51°16.071 2°51.872 41.3 4.4 39 12
2006-08-23 07:56:19 51°16.11 2°51.927 45.9 2.4 47 12
2006-08-23 07:57:20 51°16.126 2°51.964 55.7 0.7 69 12
2006-08-23 07:58:20 51°16.125 2°51.971 49.3 0.2 112 12
2006-08-23 07:59:19 51°16.146 2°52.016 51.1 4.8 52 12
2006-08-23 08:00:20 51°16.214 2°52.143 45.5 6.9 46 11.9
2006-08-23 08:01:20 51°16.272 2°52.255 51.2 4 52 11.8
2006-08-23 08:02:20 51°16.287 2°52.299 71.8 0.5 126 11.8
2006-08-23 08:03:19 51°16.279 2°52.31 95.8 0.6 145 11.8
2006-08-23 08:04:20 51°16.282 2°52.359 56 3.1 56 11.8
2006-08-23 08:05:20 51°16.336 2°52.416 20.1 3.8 14 11.6
2006-08-23 08:06:20 51°16.387 2°52.423 16.6 2.5 9 11.5
2006-08-23 08:07:20 51°16.407 2°52.437 50.2 0.2 179 11.6
2006-08-23 08:08:20 51°16.401 2°52.437 75.9 0.4 174 11.5
2006-08-23 08:09:20 51°16.394 2°52.437 92.2 0.5 176 11.6
2006-08-23 08:10:20 51°16.385 2°52.437 103.7 0.5 180 11.6
2006-08-23 08:11:20 51°16.376 2°52.436 113.5 0.6 189 11.7
2006-08-23 08:12:19 51°16.367 2°52.433 121.9 0.6 195 11.7
2006-08-23 08:13:20 51°16.358 2°52.428 127.7 0.6 195 11.7
2006-08-23 08:14:20 51°16.349 2°52.424 131.2 0.6 195 11.7
2006-08-23 08:15:20 51°16.341 2°52.421 133.4 0.5 193 11.7
2006-08-23 08:16:20 51°16.333 2°52.417 133.3 0.5 189 11.8
2006-08-23 08:17:20 51°16.325 2°52.414 134.2 0.5 194 11.8
2006-08-23 08:18:20 51°16.316 2°52.411 136.5 0.5 194 11.8
2006-08-23 08:19:19 51°16.308 2°52.408 138.5 0.5 191 11.8
2006-08-23 08:20:20 51°16.299 2°52.405 142.2 0.5 195 11.8
2006-08-23 08:21:20 51°16.292 2°52.402 142.1 0.5 192 11.9
2006-08-23 08:22:20 51°16.281 2°52.405 135 1 162 11.9
2006-08-23 08:23:20 51°16.263 2°52.42 122.6 1.3 146 11.9
2006-08-23 08:24:20 51°16.247 2°52.446 98.5 1.3 121 11.9
2006-08-23 08:25:20 51°16.243 2°52.474 65.8 0.9 80 11.9
2006-08-23 08:26:18 51°16.252 2°52.492 30.6 0.9 27 11.8
2006-08-23 08:27:20 51°16.269 2°52.493 8.9 1.2 356 11.9
2006-08-23 08:28:20 51°16.292 2°52.488 5.4 1.5 354 11.9
2006-08-23 08:29:19 51°16.324 2°52.493 22.5 2.3 18 11.8
2006-08-23 08:30:19 51°16.363 2°52.524 32 2.8 29 11.7
2006-08-23 08:31:20 51°16.403 2°52.559 29.9 2.4 26 11.7
2006-08-23 08:32:20 51°16.417 2°52.567 18 0.2 355 11.6
2006-08-23 08:33:20 51°16.422 2°52.564 359.7 0.3 321 11.7
2006-08-23 08:34:20 51°16.435 2°52.558 4.2 1.9 357 11.7
2006-08-23 08:35:19 51°16.462 2°52.595 62.5 1.6 71 11.6
2006-08-23 08:36:20 51°16.458 2°52.603 100.2 0.4 177 11.7
2006-08-23 08:37:20 51°16.45 2°52.605 117.9 0.4 173 11.7
2006-08-23 08:38:20 51°16.438 2°52.618 106 1.2 120 11.6
2006-08-23 08:39:20 51°16.437 2°52.656 56.4 1.5 59 11.7
2006-08-23 08:40:19 51°16.463 2°52.671 10.3 2.1 5 11.6
2006-08-23 08:41:20 51°16.493 2°52.69 38.5 1.8 39 11.7
2006-08-23 08:42:20 51°16.508 2°52.707 23.2 0.4 24 11.6
2006-08-23 08:43:20 51°16.513 2°52.709 8.7 0.3 10 11.5
2006-08-23 08:44:20 51°16.525 2°52.71 21.9 1.2 17 11.5
2006-08-23 08:45:20 51°16.523 2°52.708 49.7 1 224 11.5
2006-08-23 08:46:19 51°16.51 2°52.694 69.2 0.4 147 4.7
2006-08-23 08:47:20 51°16.51 2°52.72 63.4 1.3 76 11.6
2006-08-23 08:48:20 51°16.518 2°52.757 63 1.5 77 11.6
2006-08-23 08:49:19 51°16.521 2°52.785 58 0.7 90 11.6
2006-08-23 08:50:20 51°16.52 2°52.797 46.1 0.5 95 11.6
2006-08-23 08:51:20 51°16.52 2°52.804 34.4 0.1 115 11.6
2006-08-23 08:52:20 51°16.506 2°52.798 25.7 1.2 198 11.6
2006-08-23 08:53:20 51°16.508 2°52.796 355.9 0.9 339 11.6
2006-08-23 08:54:20 51°16.53 2°52.769 339 1.9 325 11.6
2006-08-23 08:55:20 51°16.555 2°52.758 10.9 1.3 -999 11.5
2006-08-23 08:56:20 51°16.571 2°52.761 16.2 0.6 9 11.4
2006-08-23 08:57:20 51°16.577 2°52.76 2.4 0.2 343 11.4
2006-08-23 08:58:20 51°16.591 2°52.764 23.4 1.3 20 11.4
2006-08-23 08:59:20 51°16.613 2°52.848 76.2 5 76 11.3
2006-08-23 09:00:20 51°16.646 2°52.985 72 5 76 11.2
2006-08-23 09:01:20 51°16.668 2°53.06 46.7 2.1 50 11.2
2006-08-23 09:02:20 51°16.672 2°53.069 28.5 0.2 232 11.2
2006-08-23 09:03:20 51°16.67 2°53.067 15.7 0.2 28 11.3
2006-08-23 09:04:20 51°16.685 2°53.083 42.8 2.2 46 11.2
2006-08-23 09:05:20 51°16.746 2°53.186 47.1 6.9 49 11.1
2006-08-23 09:06:20 51°16.82 2°53.319 49.3 5.8 49 11
2006-08-23 09:07:20 51°16.87 2°53.403 42.2 2.8 39 10.7
2006-08-23 09:08:20 51°16.866 2°53.405 16.9 0.5 179 10.8
2006-08-23 09:09:20 51°16.859 2°53.402 5.7 0.4 197 10.9
2006-08-23 09:10:20 51°16.851 2°53.399 354.1 0.4 189 10.9
2006-08-23 09:11:20 51°16.874 2°53.397 14.2 3.2 10 10.7
2006-08-23 09:12:20 51°16.922 2°53.478 46.2 5.4 44 9.8
2006-08-23 09:13:20 51°17.004 2°53.617 52.5 6.6 54 8.4
2006-08-23 09:14:20 51°17.053 2°53.732 52.5 4.6 55 8.1
2006-08-23 09:15:20 51°17.085 2°53.83 66.5 3.9 70 8.1
2006-08-23 09:16:19 51°17.102 2°53.93 70.1 3.9 75 8.1
2006-08-23 09:17:20 51°17.131 2°54.032 58.7 5 60 8
2006-08-23 09:18:20 51°17.181 2°54.132 40.5 3.7 37 7.8
2006-08-23 09:19:20 51°17.223 2°54.173 34.2 2.6 34 7.9
2006-08-23 09:20:20 51°17.244 2°54.216 52.6 1.7 61 7.9
2006-08-23 09:21:20 51°17.247 2°54.235 59.5 0.5 117 7.6
2006-08-23 09:22:20 51°17.245 2°54.252 65.9 1.3 83 7.7
2006-08-23 09:23:20 51°17.278 2°54.278 12.4 3 4 7.8
2006-08-23 09:24:20 51°17.321 2°54.287 24.4 2.5 16 7.8
2006-08-23 09:25:20 51°17.356 2°54.305 28.3 1.9 19 8
2006-08-23 09:26:20 51°17.363 2°54.318 55.1 0.3 102 8
2006-08-23 09:27:20 51°17.362 2°54.336 68.3 1.3 85 8.1
2006-08-23 09:28:20 51°17.338 2°54.439 107.3 6.4 113 7.8
2006-08-23 09:29:20 51°17.285 2°54.647 108.2 9.8 114 7.9
2006-08-23 09:30:20 51°17.168 2°54.851 143.3 10.8 149 10.3
2006-08-23 09:31:20 51°17.035 2°54.945 155.9 7.3 160 10.8
2006-08-23 09:32:20 51°16.946 2°54.992 161.2 4.6 169 10.9
2006-08-23 09:33:20 51°16.887 2°54.993 177.6 3 184 10.8
2006-08-23 09:34:20 51°16.866 2°54.988 185.4 0.2 227 4.7
2006-08-23 09:35:20 51°16.86 2°54.983 169.8 0.7 189 10.8
2006-08-23 09:36:20 51°16.817 2°54.97 204.3 4.1 203 11
2006-08-23 09:37:20 51°16.773 2°54.905 246.5 3.3 231 11.2
2006-08-23 09:38:20 51°16.745 2°54.835 254.2 3 242 11.3
2006-08-23 09:39:20 51°16.725 2°54.774 261.1 1.6 237 11.5
2006-08-23 09:40:20 51°16.716 2°54.78 271.3 0.7 164 11.6
2006-08-23 09:41:20 51°16.706 2°54.769 279 1.9 257 11.6
2006-08-23 09:42:20 51°16.679 2°54.667 244.5 6.1 239 11.6
2006-08-23 09:43:20 51°16.616 2°54.542 229 5.9 225 11.7
2006-08-23 09:44:20 51°16.542 2°54.421 228.9 6.6 225 11.7
2006-08-23 09:45:20 51°16.466 2°54.295 228.1 6.3 224 11.8
2006-08-23 09:46:20 51°16.411 2°54.186 243 4.8 237 11.8
2006-08-23 09:47:20 51°16.371 2°54.102 242.4 3.4 237 11.9
2006-08-23 09:48:20 51°16.352 2°54.034 273.6 2 251 12
2006-08-23 09:49:20 51°16.342 2°54.035 296.2 0.7 161 -999
2006-08-23 09:50:20 51°16.33 2°54.04 310.5 0.4 185 12
2006-08-23 09:51:20 51°16.33 2°54.02 295.2 1.4 274 12
2006-08-23 09:52:20 51°16.322 2°53.972 252.7 2.2 238 12.1
2006-08-23 09:53:20 51°16.291 2°53.92 226.3 3.1 218 12.1
2006-08-23 09:54:20 51°16.251 2°53.859 239.9 3.4 231 12.1
2006-08-23 09:55:20 51°16.233 2°53.806 271.4 0.9 240 12.2
2006-08-23 09:56:21 51°16.228 2°53.802 305.2 0.6 272 -999
2006-08-23 09:57:20 51°16.232 2°53.788 330.4 0.4 318 12.2
2006-08-23 09:58:20 51°16.235 2°53.783 338 0.2 343 12.2
2006-08-23 09:59:20 51°16.236 2°53.783 338.3 0.1 110 12.2
2006-08-23 10:00:20 51°16.236 2°53.785 335.8 0.1 102 12.3
2006-08-23 10:01:20 51°16.235 2°53.79 334.2 0.3 122 12.3
2006-08-23 10:02:20 51°16.232 2°53.797 336.4 0.4 118 12.3
2006-08-23 10:03:20 51°16.228 2°53.807 340 0.4 122 12.3
2006-08-23 10:04:20 51°16.224 2°53.817 345.3 0.5 128 12.3
2006-08-23 10:05:20 51°16.219 2°53.829 351.3 0.6 139 12.4
2006-08-23 10:06:20 51°16.214 2°53.839 356.1 0.5 126 12.5
2006-08-23 10:07:20 51°16.208 2°53.851 2 0.6 137 12.3
2006-08-23 10:08:20 51°16.202 2°53.863 8 0.6 117 12.3
2006-08-23 10:09:20 51°16.197 2°53.877 12.6 0.6 117 12.3
2006-08-23 10:10:20 51°16.191 2°53.89 14.1 0.6 122 12.3
2006-08-23 10:11:20 51°16.186 2°53.902 13.2 0.6 125 12.4
2006-08-23 10:12:20 51°16.181 2°53.915 11.6 0.6 127 12.4
2006-08-23 10:13:20 51°16.176 2°53.929 10.1 0.6 112 12.4
2006-08-23 10:14:20 51°16.172 2°53.942 7.9 0.5 123 12.4
2006-08-23 10:15:20 51°16.168 2°53.955 5.3 0.5 115 12.4
2006-08-23 10:16:20 51°16.164 2°53.968 1.6 0.6 111 12.3
2006-08-23 10:17:20 51°16.16 2°53.982 359 0.6 119 12.4
2006-08-23 10:18:20 51°16.155 2°53.995 357.4 0.6 125 12.5
2006-08-23 10:19:20 51°16.15 2°54.011 355.6 0.7 121 12.4
2006-08-23 10:20:20 51°16.145 2°54.027 355.6 0.7 121 12.4
2006-08-23 10:21:20 51°16.14 2°54.042 357.1 0.7 123 12.5
2006-08-23 10:22:20 51°16.135 2°54.059 358.2 0.7 116 12.4
2006-08-23 10:23:20 51°16.13 2°54.076 0.2 0.8 114 12.5
2006-08-23 10:24:20 51°16.125 2°54.094 3.6 0.8 107 12.5
2006-08-23 10:25:20 51°16.12 2°54.113 5.3 0.8 114 12.5
2006-08-23 10:26:20 51°16.115 2°54.132 6.9 0.7 111 12.5
2006-08-23 10:27:20 51°16.111 2°54.152 7.2 0.8 107 12.5
2006-08-23 10:28:20 51°16.106 2°54.171 7.3 0.8 109 12.5
2006-08-23 10:29:20 51°16.102 2°54.193 8 0.9 108 12.6
2006-08-23 10:30:20 51°16.098 2°54.214 7.9 0.8 111 12.5
2006-08-23 10:31:20 51°16.093 2°54.237 9.4 0.9 107 12.6
2006-08-23 10:32:20 51°16.089 2°54.26 9.2 0.9 102 12.6
2006-08-23 10:33:20 51°16.086 2°54.284 7.9 0.9 104 12.7
2006-08-23 10:34:20 51°16.082 2°54.308 7 0.9 105 12.7
2006-08-23 10:35:20 51°16.079 2°54.333 6.9 0.9 98 12.6
2006-08-23 10:36:20 51°16.076 2°54.358 8.5 1 103 12.7
2006-08-23 10:37:20 51°16.073 2°54.384 9.3 1 102 12.7
2006-08-23 10:38:20 51°16.071 2°54.409 9.4 1 95 12.5
2006-08-23 10:39:20 51°16.069 2°54.435 10.2 1 96 12.6
2006-08-23 10:40:20 51°16.067 2°54.462 11.8 1.1 92 12.6
2006-08-23 10:41:20 51°16.065 2°54.49 11.8 1 96 12.7
2006-08-23 10:42:20 51°16.064 2°54.519 10.9 1 94 12.7
2006-08-23 10:43:20 51°16.063 2°54.547 9.6 1 93 12.7
2006-08-23 10:44:20 51°16.062 2°54.576 8.4 1 96 12.7
2006-08-23 10:45:20 51°16.061 2°54.607 6.4 1.1 92 12.7
2006-08-23 10:46:20 51°16.064 2°54.637 358.2 1.1 78 12.6
2006-08-23 10:47:20 51°16.07 2°54.666 347.4 1.2 68 12.7
2006-08-23 10:48:20 51°16.078 2°54.694 339.6 1.2 57 12.7
2006-08-23 10:49:20 51°16.092 2°54.713 320.9 1.1 33 12.7
2006-08-23 10:50:20 51°16.107 2°54.721 303.9 1 2 12.8
2006-08-23 10:51:20 51°16.123 2°54.717 299.2 1 342 12.9
2006-08-23 10:52:20 51°16.139 2°54.703 293.8 1.1 323 12.9
2006-08-23 10:53:20 51°16.154 2°54.684 290.1 1.2 321 13
2006-08-23 10:54:20 51°16.173 2°54.621 284.7 5 288 13.2
2006-08-23 10:55:20 51°16.199 2°54.441 279.4 8.8 280 13.2
2006-08-23 10:56:20 51°16.216 2°54.176 271.9 10.3 272 13.2
2006-08-23 10:57:20 51°16.21 2°53.904 265.6 9.4 266 13.4
2006-08-23 10:58:20 51°16.197 2°53.735 250.4 4.9 244 13.6
2006-08-23 10:59:20 51°16.154 2°53.657 237.2 3.3 229 13.7
2006-08-23 11:00:20 51°16.122 2°53.597 242.5 2.6 240 13.7
2006-08-23 11:01:20 51°16.108 2°53.546 247.9 1.9 248 13.8
2006-08-23 11:02:20 51°16.099 2°53.515 243.1 0.6 246 13.8
2006-08-23 11:03:20 51°16.096 2°53.515 234.7 0.3 132 13.9
2006-08-23 11:04:20 51°16.095 2°53.526 238.4 0.5 85 13.8
2006-08-23 11:05:20 51°16.094 2°53.537 232.9 0.6 132 13.9
2006-08-23 11:06:20 51°16.079 2°53.527 229 2 217 13.8
2006-08-23 11:07:20 51°16.055 2°53.484 243.1 2.1 239 13.7
2006-08-23 11:08:20 51°16.044 2°53.449 242.8 0.5 242 14
2006-08-23 11:09:20 51°16.041 2°53.452 224.4 0.5 113 14
2006-08-23 11:10:20 51°16.039 2°53.469 212.8 0.9 97 13.9
2006-08-23 11:11:20 51°16.034 2°53.488 219.5 0.7 144 13.8
2006-08-23 11:12:20 51°16.03 2°53.474 267.4 1.2 291 13.9
2006-08-23 11:13:20 51°16.037 2°53.425 264.9 2.7 271 14
2006-08-23 11:14:20 51°16.029 2°53.358 251.8 2.3 252 14.1
2006-08-23 11:15:20 51°16.024 2°53.331 248.9 0.2 234 14.1
2006-08-23 11:16:19 51°16.021 2°53.34 234.7 0.7 107 14.1
2006-08-23 11:17:19 51°16.012 2°53.351 227.7 0.9 159 14.1
2006-08-23 11:18:19 51°15.981 2°53.325 235.5 3 219 14.1
2006-08-23 11:19:20 51°15.949 2°53.274 245.6 1.7 238 14.2
2006-08-23 11:20:20 51°15.946 2°53.248 256.4 0.9 272 14.1
2006-08-23 11:21:20 51°15.942 2°53.233 242.9 0.5 214 14.2
2006-08-23 11:22:20 51°15.935 2°53.22 245.3 0.8 235 14.1
2006-08-23 11:23:20 51°15.929 2°53.211 246.8 0.1 180 14.2
2006-08-23 11:24:20 51°15.93 2°53.218 247.4 0.5 60 14.1
2006-08-23 11:25:19 51°15.932 2°53.227 247.5 0.1 178 14.2
2006-08-23 11:26:20 51°15.918 2°53.187 245.7 3.2 241 14.2
2006-08-23 11:27:19 51°15.894 2°53.136 241.9 1.9 234 14.2
2006-08-23 11:28:20 51°15.892 2°53.106 270.1 0.8 326 14.3
2006-08-23 11:29:20 51°15.908 2°53.106 283.2 1.2 17 14.3
2006-08-23 11:30:20 51°15.922 2°53.105 260.1 0.6 306 14.3
2006-08-23 11:31:20 51°15.899 2°53.085 225.7 3.1 207 14.3
2006-08-23 11:32:20 51°15.86 2°53.033 246.3 2.1 242 14.3
2006-08-23 11:33:20 51°15.86 2°53.004 260.5 0.5 317 14.4
2006-08-23 11:34:20 51°15.866 2°53.006 252.4 0.5 40 14.4
2006-08-23 11:35:20 51°15.871 2°53.023 243.1 0.9 69 14.4
2006-08-23 11:36:20 51°15.86 2°53.028 220.6 2.4 194 14.4
2006-08-23 11:37:20 51°15.794 2°52.976 225.4 5.2 217 14.3
2006-08-23 11:38:20 51°15.744 2°52.862 243.8 4.8 240 14.3
2006-08-23 11:39:20 51°15.714 2°52.793 235.1 2.2 226 14.4
2006-08-23 11:40:20 51°15.694 2°52.762 245 1.4 236 14.4
2006-08-23 11:41:20 51°15.695 2°52.743 263.6 0.5 9 14.4
2006-08-23 11:42:20 51°15.709 2°52.761 277.6 1.1 42 14.4
2006-08-23 11:43:20 51°15.726 2°52.787 294.8 1.6 45 14.5
2006-08-23 11:44:20 51°15.748 2°52.821 317.3 2 49 14.4
2006-08-23 11:45:20 51°15.771 2°52.863 334.2 2.4 39 14.5
2006-08-23 11:46:20 51°15.813 2°52.835 278.5 3.5 298 14.5
2006-08-23 11:47:20 51°15.887 2°52.753 338.7 7.1 348 14.6
2006-08-23 11:48:20 51°15.993 2°52.885 71.2 8.8 69 14.7
2006-08-23 11:49:20 51°15.953 2°53.073 149 7.6 133 14.5
2006-08-23 11:50:20 51°15.85 2°53.201 158.2 8 140 14.3
2006-08-23 11:51:20 51°15.75 2°53.334 157.5 7.7 140 13.9
2006-08-23 11:52:20 51°15.651 2°53.47 157.3 7.7 141 13.5
2006-08-23 11:53:20 51°15.545 2°53.557 173.4 7 156 13.2
2006-08-23 11:54:19 51°15.435 2°53.605 188.3 7.3 173 12.9
2006-08-23 11:55:20 51°15.294 2°53.6 194.5 9 184 12.7
2006-08-23 11:56:20 51°15.134 2°53.559 201.2 10.4 193 12.3
2006-08-23 11:57:20 51°14.964 2°53.501 200.6 10.6 193 12.2
2006-08-23 11:58:20 51°14.799 2°53.418 202.7 10.6 196 13
2006-08-23 11:59:20 51°14.635 2°53.318 208 10.7 204 11.6
2006-08-23 12:00:20 51°14.477 2°53.228 205.9 9.2 199 10.8
2006-08-23 12:01:20 51°14.362 2°53.11 225.3 7.2 219 10.2
2006-08-23 12:02:20 51°14.31 2°53.01 238.3 4.2 229 10.9
2006-08-23 12:03:20 51°14.266 2°52.941 246 3.5 251 12.1
2006-08-23 12:04:20 51°14.266 2°52.868 252.3 2.3 265 9.5
2006-08-23 12:05:20 51°14.271 2°52.816 260.5 1.7 286 8.7
2006-08-23 12:06:20 51°14.282 2°52.816 251.1 0.8 31 8.7
2006-08-23 12:07:20 51°14.276 2°52.815 213.9 1.5 185 8.6
2006-08-23 12:08:20 51°14.238 2°52.787 230.5 3 227 9.2
2006-08-23 12:09:20 51°14.206 2°52.717 236 3.4 233 9.4
2006-08-23 12:10:20 51°14.179 2°52.689 210.6 0.9 104 10.8
2006-08-23 12:11:20 51°14.176 2°52.725 190.1 1.5 92 12.1
2006-08-23 12:12:20 51°14.149 2°52.8 143.7 6 122 13.3
2006-08-23 12:13:20 51°14.176 2°53.026 58.6 10 55 13.1
2006-08-23 12:14:20 51°14.334 2°53.122 351.4 10.9 356 12.6
2006-08-23 12:15:20 51°14.52 2°53.032 337.4 12.3 342 11.6
2006-08-23 12:16:20 51°14.713 2°52.929 338.9 12.3 343 12.1
2006-08-23 12:17:20 51°14.91 2°52.837 338 12.3 343 13.2
2006-08-23 12:18:20 51°15.102 2°52.737 337.9 11.9 343 13.3
2006-08-23 12:19:20 51°15.272 2°52.65 334 9.2 343 13.6
2006-08-23 12:20:20 51°15.402 2°52.582 327.8 7.8 339 13.9
2006-08-23 12:21:19 51°15.474 2°52.498 298 4.3 318 14.2
2006-08-23 12:22:20 51°15.523 2°52.433 300.5 3.3 326 14.5
2006-08-23 12:23:20 51°15.554 2°52.408 281.1 1.4 7 14.6
2006-08-23 12:24:21 51°15.573 2°52.445 278.4 1.8 53 -999
2006-08-23 12:25:20 51°15.59 2°52.454 266.2 1.3 295 14.6
2006-08-23 12:26:20 51°15.552 2°52.366 233.2 6.1 228 14.5
2006-08-23 12:27:20 51°15.474 2°52.216 234 8.2 229 14.6
2006-08-23 12:28:20 51°15.37 2°52.061 231.9 8.6 229 14.6
2006-08-23 12:29:20 51°15.296 2°51.93 231.4 5.1 222 14.7
2006-08-23 12:30:20 51°15.261 2°51.866 234.1 2.4 223 14.7
2006-08-23 12:31:20 51°15.236 2°51.838 232.3 1.4 216 14.7
2006-08-23 12:32:20 51°15.222 2°51.819 238.2 0.9 216 14.7
2006-08-23 12:33:20 51°15.216 2°51.808 240.6 0.3 247 14.5
2006-08-23 12:34:20 51°15.219 2°51.823 237.3 1.9 60 14.5
2006-08-23 12:35:20 51°15.224 2°51.855 221.6 1.5 191 14.6
2006-08-23 12:36:20 51°15.148 2°51.773 227.3 7.3 225 14.4
2006-08-23 12:37:20 51°15.093 2°51.611 239.2 6.6 235 14.5
2006-08-23 12:38:20 51°15.043 2°51.501 243.1 3.6 239 14.5
2006-08-23 12:39:20 51°15.03 2°51.445 249.6 1.7 255 14.6
2006-08-23 12:40:20 51°15.032 2°51.451 229.6 0.7 74 14.6
2006-08-23 12:41:20 51°15.017 2°51.47 194.6 3.4 168 14.4
2006-08-23 12:42:20 51°14.929 2°51.581 137.1 8.2 126 13.9
2006-08-23 12:43:20 51°14.933 2°51.829 80.5 11 75 13.6
2006-08-23 12:44:20 51°14.984 2°52.131 80.8 11.9 75 13.3
2006-08-23 12:45:20 51°15.026 2°52.404 82.5 9.3 75 13.3
2006-08-23 12:46:19 51°15.058 2°52.598 83.7 6.7 76 13.4
2006-08-23 12:47:20 51°15.083 2°52.757 83.1 5.8 74 13.3
2006-08-23 12:48:20 51°15.11 2°52.893 78.7 4.9 72 13.1
2006-08-23 12:49:20 51°15.129 2°52.957 91.4 1.1 42 -999
2006-08-23 12:50:21 51°15.142 2°52.983 96.9 1.7 58 -999
2006-08-23 12:51:20 51°15.13 2°53.076 140.4 5.7 128 12.9
2006-08-23 12:52:19 51°15.038 2°53.078 219.6 6.7 216 12.8
2006-08-23 12:53:20 51°14.964 2°52.893 245.2 8.9 244 13.4
2006-08-23 12:54:20 51°14.916 2°52.666 248.7 9 246 12.8
2006-08-23 12:55:20 51°14.852 2°52.457 250 7.5 250 12.6
2006-08-23 12:56:20 51°14.821 2°52.333 235.1 3.3 229 12.7
2006-08-23 12:57:20 51°14.784 2°52.29 232 2.7 227 12.6
2006-08-23 12:58:20 51°14.779 2°52.254 276 0.7 342 12.7
2006-08-23 12:59:19 51°14.794 2°52.253 296.8 1.4 338 12.7
2006-08-23 13:00:20 51°14.796 2°52.179 245.7 4.3 240 12.7
2006-08-23 13:01:20 51°14.739 2°52.084 235.8 4.1 225 12.7
2006-08-23 13:02:20 51°14.691 2°52.041 215.7 2.8 201 12.6
2006-08-23 13:03:20 51°14.666 2°52.021 233.7 0.4 124 12.5
2006-08-23 13:04:20 51°14.667 2°52.037 236.8 0.7 83 12.5
2006-08-23 13:05:20 51°14.67 2°52.056 238.6 0.8 73 12.5
2006-08-23 13:06:20 51°14.669 2°52.017 270.3 4.1 281 12.5
2006-08-23 13:07:20 51°14.761 2°51.927 349.5 8.9 359 12.7
2006-08-23 13:08:20 51°14.873 2°52.1 77.7 10.4 76 13
2006-08-23 13:09:20 51°14.838 2°52.405 111.2 12.5 103 12.5
2006-08-23 13:10:20 51°14.79 2°52.732 109.7 12.6 103 12.2
2006-08-23 13:11:20 51°14.74 2°53.058 110.5 12.7 102 11.9
2006-08-23 13:12:20 51°14.689 2°53.382 109.7 12.6 103 11.8
2006-08-23 13:13:20 51°14.637 2°53.706 112 12.8 102 12.1
2006-08-23 13:14:20 51°14.583 2°54.038 113.3 12.9 105 13.2
2006-08-23 13:15:20 51°14.521 2°54.364 115.6 13.2 105 13.3
2006-08-23 13:16:20 51°14.455 2°54.686 116.8 12.8 109 13.1
2006-08-23 13:17:20 51°14.373 2°54.998 122.6 12.5 117 12.4
2006-08-23 13:18:20 51°14.26 2°55.254 134 11.7 134 12.6
2006-08-23 13:19:20 51°14.119 2°55.421 155.9 9.2 154 12.6
2006-08-23 13:20:20 51°14.005 2°55.505 158.4 7.2 156 12.6
2006-08-23 13:21:20 51°13.882 2°55.591 157.1 8.4 154 12.9
2006-08-23 13:22:20 51°13.767 2°55.689 148.2 7.1 145 12.5
2006-08-23 13:23:20 51°13.698 2°55.8 129.6 5.2 128 13.3
2006-08-23 13:24:20 51°13.652 2°55.905 125 4.5 123 11.7
2006-08-23 13:25:24 51°13.617 2°56.004 116.5 4 114 11.8
2006-08-23 13:26:25 51°13.603 2°56.083 104.7 2.2 102 -999
2006-08-23 13:27:25 51°13.601 2°56.095 126.4 0.1 94 -999
2006-08-23 13:28:25 51°13.602 2°56.098 120.4 0.1 257 -999
2006-08-23 13:29:25 51°13.602 2°56.099 126.4 -999 217 -999